Terminal Aerodrome Forecast
Issued by NWS Charleston, WV

Home | Current Version | Previous Version | Text Only | Print | Product List | Glossary On
Versions: 1 2 3 4 5 6 7 8 9 10 11 12 13 14 15 16 17 18
000
FTUS41 KRLX 260300 AAA
TAFEKN
TAF AMD
KEKN 260304Z 2603/2624 26006KT P6SM OVC025
     FM260600 00000KT P6SM SCT035
     FM261100 00000KT P6SM FEW250
     FM261600 24004KT P6SM SKC=

USA.gov is the U.S. government's official web portal to all federal, state and local government web resources and services.